Blue Spring, Kentucky
Current Conditions -  °F | °C
As of 5:58 AM on Thursday 23 Oct 2014 (Local Time) from KHOP Reporting Station
Clear Clear  
Wind Chill: 39°   Ceiling: Unl
Heat Index: 39°   Visibility: 10mi
Dew Point: 39°   Wind: 3mph
Humidity: 100%   Direction: 70°ENE
Pressure: 30.23"   Gusts: NA
Location:  36.8031°N, 87.8159°W
Report Text: KHOP 231058Z AUTO 07003KT 10SM CLR 04/04 A3023 RMK AO2 SLP240 T00400040
Loading
Personal Weather Stations






























Interactive Weather Map
Tropical Storm Tracking
New forecast layout! Learn more

10-Day Weather Forecast

Advertisements
Track Severe Weather on mobile